createdAt,value
2019-01-29T00:00:52.367Z,39.05
2019-01-29T00:03:23.861Z,35.88
2019-01-29T00:05:55.542Z,32.50
2019-01-29T00:08:27.046Z,30.72
2019-01-29T00:10:58.704Z,29.67
2019-01-29T00:13:30.196Z,34.67
2019-01-29T00:16:01.930Z,30.20
2019-01-29T00:18:34.198Z,26.97
2019-01-29T00:21:06.076Z,26.80
2019-01-29T00:23:37.488Z,32.65
2019-01-29T00:26:09.045Z,34.73
2019-01-29T00:28:40.624Z,35.50
2019-01-29T00:31:12.039Z,34.80
2019-01-29T00:33:43.388Z,36.23
2019-01-29T00:36:15.178Z,29.67
2019-01-29T00:38:47.675Z,36.13
2019-01-29T00:41:19.349Z,33.15
2019-01-29T00:43:51.106Z,29.57
2019-01-29T00:46:22.720Z,28.65
2019-01-29T00:48:54.392Z,26.20
2019-01-29T00:51:26.056Z,26.57
2019-01-29T00:53:57.668Z,24.18
2019-01-29T00:56:29.216Z,24.77
2019-01-29T00:59:00.883Z,23.95
2019-01-29T01:01:32.348Z,24.72
2019-01-29T01:04:03.840Z,24.50
2019-01-29T01:06:35.210Z,26.20
2019-01-29T01:09:09.511Z,25.08
2019-01-29T01:11:40.943Z,25.15
2019-01-29T01:14:13.637Z,27.15
2019-01-29T01:16:45.575Z,26.30
2019-01-29T01:19:17.221Z,25.55
2019-01-29T01:21:48.887Z,25.48
2019-01-29T01:24:20.741Z,26.40
2019-01-29T01:26:52.411Z,26.68
2019-01-29T01:29:24.098Z,25.17
2019-01-29T01:31:55.639Z,25.50
2019-01-29T01:34:27.234Z,29.92
2019-01-29T01:36:58.993Z,27.10
2019-01-29T01:39:30.631Z,26.60
2019-01-29T01:42:02.432Z,26.27
2019-01-29T01:44:33.996Z,25.30
2019-01-29T01:47:05.373Z,24.98
2019-01-29T01:49:36.934Z,24.77
2019-01-29T01:52:08.448Z,25.00
2019-01-29T01:54:40.146Z,24.60
2019-01-29T01:57:11.582Z,26.37
2019-01-29T01:59:43.141Z,26.45
2019-01-29T02:02:14.747Z,27.37
2019-01-29T02:04:46.342Z,26.87
2019-01-29T02:07:17.673Z,28.57
2019-01-29T02:09:48.986Z,30.62
2019-01-29T02:12:20.260Z,28.27
2019-01-29T02:14:51.710Z,25.08
2019-01-29T02:17:23.192Z,29.05
2019-01-29T02:19:54.807Z,26.23
2019-01-29T02:22:26.307Z,26.52
2019-01-29T02:24:57.981Z,27.65
2019-01-29T02:27:29.807Z,25.85
2019-01-29T02:30:01.408Z,27.55
2019-01-29T02:32:33.284Z,24.32
2019-01-29T02:35:05.047Z,27.65
2019-01-29T02:37:36.435Z,29.10
2019-01-29T02:40:10.955Z,30.17
2019-01-29T02:42:42.298Z,28.70
2019-01-29T02:45:14.878Z,27.77
2019-01-29T02:47:46.719Z,29.67
2019-01-29T02:50:19.128Z,31.02
2019-01-29T02:52:50.529Z,29.25
2019-01-29T02:55:21.963Z,28.85
2019-01-29T02:57:53.286Z,30.20
2019-01-29T03:00:26.628Z,30.10
2019-01-29T03:02:58.243Z,30.82
2019-01-29T03:05:30.896Z,29.23
2019-01-29T03:08:02.611Z,28.87
2019-01-29T03:10:34.154Z,29.35
2019-01-29T03:13:05.996Z,26.57
2019-01-29T03:15:37.490Z,29.23
2019-01-29T03:18:09.142Z,27.60
2019-01-29T03:20:40.637Z,28.85
2019-01-29T03:23:12.482Z,29.50
2019-01-29T03:25:44.161Z,28.45
2019-01-29T03:28:15.973Z,29.98
2019-01-29T03:30:47.721Z,28.92
2019-01-29T03:33:19.227Z,29.07
2019-01-29T03:35:52.112Z,29.72
2019-01-29T03:38:23.944Z,31.02
2019-01-29T03:40:55.514Z,29.95
2019-01-29T03:43:27.265Z,30.05
2019-01-29T03:45:59.041Z,31.42
2019-01-29T03:48:30.784Z,27.70
2019-01-29T03:51:02.142Z,29.27
2019-01-29T03:53:38.206Z,31.85
2019-01-29T03:56:07.305Z,34.05
2019-01-29T03:58:39.442Z,31.70
2019-01-29T04:01:11.110Z,33.98
2019-01-29T04:03:42.591Z,34.65
2019-01-29T04:06:14.037Z,33.85
2019-01-29T04:08:45.596Z,33.45
2019-01-29T04:11:17.182Z,34.48
2019-01-29T04:13:48.948Z,34.73
2019-01-29T04:16:20.565Z,34.43
2019-01-29T04:18:52.162Z,37.95
2019-01-29T04:21:23.571Z,42.95
2019-01-29T04:23:55.180Z,41.88
2019-01-29T04:26:26.822Z,39.38
2019-01-29T04:28:58.453Z,38.42
2019-01-29T04:31:30.144Z,38.33
2019-01-29T04:34:01.514Z,37.83
2019-01-29T04:36:32.760Z,28.57
2019-01-29T04:39:05.925Z,31.52
2019-01-29T04:41:37.217Z,36.15
2019-01-29T04:44:08.778Z,37.65
2019-01-29T04:46:40.223Z,40.48
2019-01-29T04:49:11.855Z,37.60
2019-01-29T04:51:43.149Z,38.30
2019-01-29T04:54:14.814Z,38.38
2019-01-29T04:56:46.277Z,34.38
2019-01-29T04:59:17.883Z,34.58
2019-01-29T05:01:49.670Z,29.60
2019-01-29T05:04:21.308Z,29.40
2019-01-29T05:06:52.598Z,29.05
2019-01-29T05:09:23.978Z,32.23
2019-01-29T05:11:55.198Z,31.45
2019-01-29T05:14:26.865Z,34.00
2019-01-29T05:16:58.531Z,35.08
2019-01-29T05:19:30.266Z,33.10
2019-01-29T05:22:01.494Z,35.13
2019-01-29T05:24:33.140Z,33.18
2019-01-29T05:27:04.927Z,32.45
2019-01-29T05:29:36.623Z,32.30
2019-01-29T05:32:08.425Z,32.50
2019-01-29T05:34:39.863Z,32.30
2019-01-29T05:37:11.583Z,32.85
2019-01-29T05:39:43.108Z,33.30
2019-01-29T05:42:14.763Z,33.50
2019-01-29T05:44:46.563Z,34.88
2019-01-29T05:47:17.980Z,34.92
2019-01-29T05:49:49.689Z,37.50
2019-01-29T05:52:20.939Z,36.45
2019-01-29T05:54:52.258Z,35.45
2019-01-29T05:57:23.764Z,37.98
2019-01-29T05:59:55.310Z,38.48
2019-01-29T06:02:26.981Z,34.13
2019-01-29T06:04:58.697Z,36.38
2019-01-29T06:07:30.390Z,36.55
2019-01-29T06:10:01.608Z,34.90
2019-01-29T06:12:33.259Z,40.55
2019-01-29T06:15:05.448Z,31.77
2019-01-29T06:17:37.317Z,36.73
2019-01-29T06:20:11.901Z,30.60
2019-01-29T06:22:43.335Z,35.33
2019-01-29T06:25:15.000Z,38.70
2019-01-29T06:27:47.169Z,26.77
2019-01-29T06:30:20.126Z,27.58
2019-01-29T06:32:51.806Z,31.48
2019-01-29T06:35:23.273Z,29.18
2019-01-29T06:37:54.842Z,29.57
2019-01-29T06:40:28.083Z,32.93
2019-01-29T06:43:00.585Z,32.45
2019-01-29T06:45:32.551Z,34.60
2019-01-29T06:48:04.658Z,32.55
2019-01-29T06:50:36.262Z,34.48
2019-01-29T06:53:07.678Z,33.92
2019-01-29T06:55:39.256Z,34.25
2019-01-29T06:58:10.777Z,35.45
2019-01-29T07:00:42.934Z,32.40
2019-01-29T07:03:14.433Z,33.18
2019-01-29T07:05:45.894Z,39.83
2019-01-29T07:08:17.443Z,40.28
2019-01-29T07:10:49.201Z,36.50
2019-01-29T07:13:21.270Z,37.75
2019-01-29T07:16:12.555Z,39.83
2019-01-29T07:19:05.710Z,38.95
2019-01-29T07:21:37.340Z,37.58
2019-01-29T07:24:09.128Z,37.67
2019-01-29T07:26:40.783Z,40.10
2019-01-29T07:29:12.093Z,38.67
2019-01-29T07:31:43.827Z,38.63
2019-01-29T07:34:15.054Z,48.33
2019-01-29T07:36:46.517Z,44.33
2019-01-29T07:39:18.305Z,42.95
2019-01-29T07:41:49.855Z,47.53
2019-01-29T07:44:21.458Z,51.30
2019-01-29T07:46:52.930Z,56.73
2019-01-29T07:49:24.693Z,59.33
2019-01-29T07:51:56.529Z,62.55
2019-01-29T07:54:33.227Z,67.67
2019-01-29T07:57:01.850Z,64.42
2019-01-29T07:59:33.515Z,68.85
2019-01-29T08:02:05.752Z,66.35
2019-01-29T08:04:37.259Z,65.97
2019-01-29T08:07:09.021Z,65.47
2019-01-29T08:09:40.471Z,73.83
2019-01-29T08:12:12.093Z,74.87
2019-01-29T08:14:43.637Z,72.47
2019-01-29T08:17:15.257Z,69.17
2019-01-29T08:19:46.914Z,69.95
2019-01-29T08:22:18.405Z,74.58
2019-01-29T08:24:53.309Z,73.62
2019-01-29T08:27:23.603Z,76.35
2019-01-29T08:29:55.203Z,81.12
2019-01-29T08:32:26.683Z,74.92
2019-01-29T08:34:58.427Z,82.45
2019-01-29T08:37:30.252Z,78.95
2019-01-29T08:40:01.774Z,74.10
2019-01-29T08:42:33.392Z,70.28
2019-01-29T08:45:05.945Z,68.20
2019-01-29T08:47:37.464Z,65.08
2019-01-29T08:50:11.938Z,63.40
2019-01-29T08:52:43.457Z,66.95
2019-01-29T08:55:14.768Z,74.55
2019-01-29T08:57:46.086Z,101.35
2019-01-29T09:00:18.211Z,84.70
2019-01-29T09:02:49.868Z,81.63
2019-01-29T09:05:21.332Z,77.90
2019-01-29T09:07:52.814Z,72.27
2019-01-29T09:10:24.378Z,69.67
2019-01-29T09:12:55.956Z,67.37
2019-01-29T09:15:27.714Z,62.85
2019-01-29T09:17:59.652Z,61.65
2019-01-29T09:20:31.406Z,61.40
2019-01-29T09:23:03.339Z,54.98
2019-01-29T09:25:36.825Z,54.88
2019-01-29T09:28:08.433Z,49.88
2019-01-29T09:30:39.875Z,49.45
2019-01-29T09:33:11.354Z,54.85
2019-01-29T09:35:42.784Z,56.83
2019-01-29T09:38:14.113Z,57.85
2019-01-29T09:40:45.597Z,57.73
2019-01-29T09:43:17.577Z,65.22
2019-01-29T09:45:49.173Z,63.90
2019-01-29T09:48:20.917Z,63.17
2019-01-29T09:50:52.632Z,60.10
2019-01-29T09:53:24.047Z,61.60
2019-01-29T09:55:55.626Z,62.03
2019-01-29T09:58:27.160Z,62.03
2019-01-29T10:00:58.697Z,61.90
2019-01-29T10:03:30.414Z,61.95
2019-01-29T10:06:01.944Z,62.03
2019-01-29T10:08:33.472Z,65.05
2019-01-29T10:11:05.180Z,71.35
2019-01-29T10:13:36.787Z,66.65
2019-01-29T10:16:08.594Z,64.97
2019-01-29T10:18:39.959Z,62.73
2019-01-29T10:21:11.342Z,63.78
2019-01-29T10:23:42.844Z,64.60
2019-01-29T10:26:14.603Z,60.12
2019-01-29T10:28:45.910Z,58.50
2019-01-29T10:31:17.241Z,58.23
2019-01-29T10:33:48.872Z,57.05
2019-01-29T10:36:20.621Z,60.90
2019-01-29T10:38:52.098Z,64.25
2019-01-29T10:41:23.677Z,70.83
2019-01-29T10:43:56.382Z,70.35
2019-01-29T10:46:27.943Z,60.73
2019-01-29T10:48:59.538Z,57.95
2019-01-29T10:51:31.302Z,61.02
2019-01-29T10:54:03.044Z,62.67
2019-01-29T10:56:34.581Z,58.40
2019-01-29T10:59:06.400Z,58.58
2019-01-29T11:01:38.124Z,60.38
2019-01-29T11:04:09.803Z,58.28
2019-01-29T11:06:41.553Z,61.23
2019-01-29T11:09:15.100Z,59.18
2019-01-29T11:11:46.569Z,58.55
2019-01-29T11:14:17.840Z,59.88
2019-01-29T11:16:49.167Z,60.05
2019-01-29T11:19:20.575Z,58.23
2019-01-29T11:21:52.142Z,52.13
2019-01-29T11:24:23.632Z,52.15
2019-01-29T11:26:55.004Z,51.08
2019-01-29T11:29:26.719Z,49.40
2019-01-29T11:31:58.556Z,48.83
2019-01-29T11:34:30.320Z,58.55
2019-01-29T11:37:01.872Z,58.08
2019-01-29T11:39:33.840Z,59.15
2019-01-29T11:42:05.789Z,76.90
2019-01-29T11:44:37.563Z,86.80
2019-01-29T11:47:09.275Z,88.45
2019-01-29T11:49:41.118Z,83.30
2019-01-29T11:52:12.395Z,70.70
2019-01-29T11:54:43.892Z,62.90
2019-01-29T11:57:16.533Z,53.42
2019-01-29T11:59:48.050Z,48.63
2019-01-29T12:02:28.027Z,50.25
2019-01-29T12:04:52.527Z,49.15
2019-01-29T12:07:24.166Z,47.83
2019-01-29T12:09:56.596Z,50.28
2019-01-29T12:12:28.402Z,52.30
2019-01-29T12:15:00.214Z,55.80
2019-01-29T12:17:31.692Z,56.40
2019-01-29T12:20:03.374Z,54.70
2019-01-29T12:22:34.863Z,53.98
2019-01-29T12:25:06.726Z,55.85
2019-01-29T12:27:38.505Z,55.20
2019-01-29T12:30:14.662Z,63.10
2019-01-29T12:32:46.362Z,56.08
2019-01-29T12:35:17.915Z,55.17
2019-01-29T12:37:49.469Z,58.50
2019-01-29T12:40:21.080Z,59.27
2019-01-29T12:42:53.724Z,58.80
2019-01-29T12:45:25.434Z,56.55
2019-01-29T12:47:57.200Z,59.05
2019-01-29T12:50:29.161Z,63.45
2019-01-29T12:53:11.859Z,63.42
2019-01-29T12:55:43.433Z,62.43
2019-01-29T12:58:15.119Z,57.33
2019-01-29T13:00:49.655Z,57.33
2019-01-29T13:03:21.374Z,53.90
2019-01-29T13:05:53.326Z,52.67
2019-01-29T13:08:24.997Z,52.23
2019-01-29T13:10:56.560Z,54.23
2019-01-29T13:13:28.409Z,53.60
2019-01-29T13:16:00.212Z,55.20
2019-01-29T13:18:31.883Z,54.30
2019-01-29T13:21:03.529Z,55.12
2019-01-29T13:23:34.858Z,53.23
2019-01-29T13:26:06.435Z,56.40
2019-01-29T13:28:37.681Z,53.13
2019-01-29T13:31:09.339Z,55.33
2019-01-29T13:33:40.938Z,54.85
2019-01-29T13:36:13.466Z,55.80
2019-01-29T13:38:45.296Z,57.25
2019-01-29T13:41:17.185Z,55.88
2019-01-29T13:43:48.809Z,56.85
2019-01-29T13:46:20.733Z,57.90
2019-01-29T13:48:52.468Z,55.50
2019-01-29T13:51:24.174Z,56.83
2019-01-29T13:53:55.836Z,56.20
2019-01-29T13:56:27.578Z,57.70
2019-01-29T13:58:59.200Z,58.50
2019-01-29T14:01:32.039Z,61.92
2019-01-29T14:04:06.263Z,60.03
2019-01-29T14:06:37.065Z,59.77
2019-01-29T14:09:09.448Z,58.70
2019-01-29T14:11:41.241Z,58.68
2019-01-29T14:14:12.926Z,62.60
2019-01-29T14:16:44.385Z,61.60
2019-01-29T14:19:15.915Z,62.83
2019-01-29T14:21:47.393Z,66.60
2019-01-29T14:24:19.128Z,63.73
2019-01-29T14:26:50.700Z,62.45
2019-01-29T14:29:22.238Z,68.67
2019-01-29T14:31:53.817Z,65.67
2019-01-29T14:34:25.376Z,69.58
2019-01-29T14:36:56.899Z,67.67
2019-01-29T14:40:16.805Z,69.60
2019-01-29T14:42:49.838Z,71.25
2019-01-29T14:45:24.599Z,69.60
2019-01-29T14:47:57.090Z,67.55
2019-01-29T14:50:29.773Z,71.95
2019-01-29T14:53:01.211Z,73.15
2019-01-29T14:55:32.818Z,70.65
2019-01-29T14:58:04.355Z,72.25
2019-01-29T15:00:37.510Z,73.15
2019-01-29T15:03:11.348Z,74.65
2019-01-29T15:05:42.594Z,71.80
2019-01-29T15:08:14.259Z,76.17
2019-01-29T15:10:45.930Z,76.97
2019-01-29T15:13:17.373Z,72.95
2019-01-29T15:15:55.264Z,79.37
2019-01-29T15:18:32.743Z,81.45
2019-01-29T15:21:04.627Z,83.17
2019-01-29T15:23:36.136Z,82.42
2019-01-29T15:26:07.931Z,78.97
2019-01-29T15:28:39.624Z,80.62
2019-01-29T15:31:11.169Z,78.72
2019-01-29T15:33:42.664Z,77.40
2019-01-29T15:36:14.300Z,78.92
2019-01-29T15:38:45.608Z,76.85
2019-01-29T15:41:17.463Z,76.05
2019-01-29T15:43:49.385Z,74.15
2019-01-29T15:46:21.101Z,75.52
2019-01-29T15:48:53.988Z,78.75
2019-01-29T15:51:25.534Z,80.32
2019-01-29T15:53:57.249Z,76.87
2019-01-29T15:56:28.753Z,78.72
2019-01-29T15:59:00.476Z,79.22
2019-01-29T16:01:32.068Z,78.72
2019-01-29T16:04:03.711Z,81.80
2019-01-29T16:06:37.313Z,84.45
2019-01-29T16:09:10.777Z,87.08
2019-01-29T16:11:42.106Z,89.52
2019-01-29T16:14:13.886Z,89.95
2019-01-29T16:16:45.284Z,87.12
2019-01-29T16:19:16.875Z,87.42
2019-01-29T16:21:48.332Z,89.00
2019-01-29T16:24:19.666Z,82.20
2019-01-29T16:26:51.065Z,84.58
2019-01-29T16:29:22.546Z,80.87
2019-01-29T16:31:54.079Z,110.32
2019-01-29T16:34:25.447Z,84.83
2019-01-29T16:36:57.308Z,81.10
2019-01-29T16:39:28.840Z,78.52
2019-01-29T16:42:00.323Z,75.72
2019-01-29T16:44:31.711Z,78.80
2019-01-29T16:47:03.482Z,79.67
2019-01-29T16:49:34.954Z,81.28
2019-01-29T16:52:07.005Z,78.95
2019-01-29T16:54:38.880Z,80.65
2019-01-29T16:57:10.534Z,85.07
2019-01-29T16:59:42.196Z,83.90
2019-01-29T17:02:14.997Z,85.35
2019-01-29T17:04:46.348Z,80.55
2019-01-29T17:07:17.683Z,80.07
2019-01-29T17:09:49.393Z,78.67
2019-01-29T17:12:20.961Z,77.40
2019-01-29T17:14:52.449Z,73.90
2019-01-29T17:17:23.987Z,74.10
2019-01-29T17:19:56.324Z,91.10
2019-01-29T17:22:27.892Z,68.72
2019-01-29T17:24:59.184Z,75.80
2019-01-29T17:27:39.899Z,71.17
2019-01-29T17:30:06.996Z,74.03
2019-01-29T17:32:38.708Z,73.45
2019-01-29T17:35:10.464Z,76.53
2019-01-29T17:37:41.921Z,77.00
2019-01-29T17:40:14.644Z,75.83
2019-01-29T17:42:46.456Z,74.70
2019-01-29T17:45:20.902Z,74.65
2019-01-29T17:47:52.971Z,74.37
2019-01-29T17:50:26.668Z,73.75
2019-01-29T17:52:58.720Z,72.97
2019-01-29T17:55:31.648Z,71.87
2019-01-29T17:58:03.444Z,74.25
2019-01-29T18:00:36.355Z,75.28
2019-01-29T18:03:08.235Z,73.20
2019-01-29T18:05:40.020Z,80.07
2019-01-29T18:08:11.487Z,95.95
2019-01-29T18:10:43.157Z,87.17
2019-01-29T18:13:14.829Z,124.67
2019-01-29T18:15:46.490Z,110.15
2019-01-29T18:18:18.253Z,120.67
2019-01-29T18:20:49.642Z,131.35
2019-01-29T18:23:21.423Z,130.22
2019-01-29T18:25:53.257Z,121.90
2019-01-29T18:28:24.942Z,127.58
2019-01-29T18:30:56.482Z,126.00
2019-01-29T18:33:28.116Z,112.85
2019-01-29T18:35:59.592Z,110.95
2019-01-29T18:38:31.097Z,105.40
2019-01-29T18:41:03.043Z,107.47
2019-01-29T18:43:34.289Z,105.25
2019-01-29T18:46:05.905Z,101.00
2019-01-29T18:48:37.482Z,106.90
2019-01-29T18:51:09.070Z,95.90
2019-01-29T18:53:40.745Z,97.22
2019-01-29T18:56:12.117Z,101.67
2019-01-29T18:58:44.031Z,104.55
2019-01-29T19:01:15.844Z,103.00
2019-01-29T19:03:49.699Z,92.97
2019-01-29T19:06:20.563Z,87.60
2019-01-29T19:08:52.186Z,85.17
2019-01-29T19:11:23.843Z,89.47
2019-01-29T19:13:55.244Z,84.30
2019-01-29T19:16:26.661Z,89.95
2019-01-29T19:18:58.311Z,88.60
2019-01-29T19:21:30.039Z,85.95
2019-01-29T19:24:01.619Z,85.87
2019-01-29T19:26:33.239Z,83.33
2019-01-29T19:29:06.532Z,93.80
2019-01-29T19:31:38.102Z,95.77
2019-01-29T19:34:11.160Z,94.95
2019-01-29T19:36:42.719Z,92.00
2019-01-29T19:39:14.546Z,97.20
2019-01-29T19:41:46.138Z,92.78
2019-01-29T19:44:17.616Z,101.07
2019-01-29T19:46:50.036Z,100.62
2019-01-29T19:49:21.550Z,104.03
2019-01-29T19:51:53.355Z,107.12
2019-01-29T19:54:25.048Z,104.15
2019-01-29T19:56:56.505Z,113.50
2019-01-29T19:59:28.051Z,118.82
2019-01-29T20:01:59.825Z,123.78
2019-01-29T20:04:31.532Z,126.47
2019-01-29T20:07:03.418Z,122.75
2019-01-29T20:09:34.965Z,128.07
2019-01-29T20:12:06.756Z,138.88
2019-01-29T20:14:38.508Z,140.20
2019-01-29T20:17:10.108Z,144.65
2019-01-29T20:19:41.799Z,167.18
2019-01-29T20:22:13.659Z,188.10
2019-01-29T20:24:45.249Z,159.87
2019-01-29T20:27:17.886Z,267.73
2019-01-29T20:29:49.531Z,268.27
2019-01-29T20:32:21.397Z,257.05
2019-01-29T20:34:53.072Z,258.38
2019-01-29T20:37:24.631Z,168.87
2019-01-29T20:39:55.951Z,238.20
2019-01-29T20:42:27.382Z,230.75
2019-01-29T20:44:58.770Z,186.57
2019-01-29T20:47:30.147Z,215.05
2019-01-29T20:50:01.588Z,245.50
2019-01-29T20:52:33.102Z,243.05
2019-01-29T20:55:04.535Z,200.85
2019-01-29T20:57:35.851Z,182.07
2019-01-29T21:00:17.403Z,166.35
2019-01-29T21:02:48.983Z,169.70
2019-01-29T21:05:20.694Z,196.10
2019-01-29T21:07:52.243Z,194.87
2019-01-29T21:10:23.847Z,185.93
2019-01-29T21:12:55.679Z,164.07
2019-01-29T21:15:37.654Z,178.10
2019-01-29T21:18:00.303Z,170.22
2019-01-29T21:20:32.308Z,191.65
2019-01-29T21:23:03.698Z,176.30
2019-01-29T21:25:35.491Z,172.17
2019-01-29T21:28:07.096Z,173.10
2019-01-29T21:30:43.661Z,177.53
2019-01-29T21:33:14.096Z,209.37
2019-01-29T21:35:45.802Z,230.20
2019-01-29T21:38:17.608Z,197.25
2019-01-29T21:40:49.257Z,217.77
2019-01-29T21:43:20.870Z,188.35
2019-01-29T21:45:53.666Z,194.15
2019-01-29T21:48:25.084Z,187.82
2019-01-29T21:50:56.454Z,213.30
2019-01-29T21:53:27.857Z,235.30
2019-01-29T21:55:59.294Z,203.50
2019-01-29T21:58:31.154Z,248.10
2019-01-29T22:01:02.987Z,222.58
2019-01-29T22:03:34.776Z,226.45
2019-01-29T22:06:06.652Z,204.80
2019-01-29T22:08:38.177Z,190.77
2019-01-29T22:11:09.923Z,232.35
2019-01-29T22:14:08.912Z,213.50
2019-01-29T22:17:04.687Z,205.87
2019-01-29T22:19:45.245Z,207.95
2019-01-29T22:22:38.110Z,238.72
2019-01-29T22:25:14.001Z,218.48
2019-01-29T22:27:46.558Z,239.30
2019-01-29T22:30:26.837Z,205.15
2019-01-29T22:32:58.428Z,202.87
2019-01-29T22:35:29.918Z,153.68
2019-01-29T22:38:01.688Z,140.40
2019-01-29T22:40:33.723Z,148.70
2019-01-29T22:43:06.114Z,119.10
2019-01-29T22:45:37.889Z,131.93
2019-01-29T22:48:09.960Z,128.53
2019-01-29T22:50:43.194Z,153.90
2019-01-29T22:53:14.858Z,203.18
2019-01-29T22:55:46.664Z,183.57
2019-01-29T22:58:18.179Z,164.55
2019-01-29T23:01:33.871Z,182.97
2019-01-29T23:04:44.761Z,145.30
2019-01-29T23:07:21.911Z,184.85
2019-01-29T23:09:53.395Z,144.10
2019-01-29T23:12:24.995Z,136.90
2019-01-29T23:14:56.580Z,144.97
2019-01-29T23:17:28.329Z,185.35
2019-01-29T23:19:59.712Z,160.88
2019-01-29T23:22:31.136Z,139.52
2019-01-29T23:25:02.511Z,118.35
2019-01-29T23:27:34.458Z,121.95
2019-01-29T23:30:08.224Z,123.10
2019-01-29T23:32:39.861Z,127.30
2019-01-29T23:35:11.427Z,101.85
2019-01-29T23:37:42.913Z,109.65
2019-01-29T23:40:15.162Z,112.17
2019-01-29T23:42:46.708Z,107.07
2019-01-29T23:45:18.571Z,119.53
2019-01-29T23:48:00.625Z,104.95
2019-01-29T23:50:32.638Z,126.12
2019-01-29T23:53:04.191Z,107.90
2019-01-29T23:55:35.679Z,99.47
2019-01-29T23:58:07.553Z,121.53
